Time;durP1;ratioP1;P1;durP2;ratioP2;P2;SDS_P1;SDS_P2;PMS_P1;PMS_P2;Temp;Humidity;BMP_temperature;BMP_pressure;BME280_temperature;BME280_humidity;BME280_pressure;Samples;Min_cycle;Max_cycle;Signal;HPM_P1;HPM_P2
2023/12/18 00:01:39;;;;;;;10.18;4.70;;;8.70;80.80;;;;;;5049021;28;20032;-60
2023/12/18 00:04:07;;;;;;;5.85;4.05;;;8.70;80.80;;;;;;5046979;28;20237;-59
2023/12/18 00:06:33;;;;;;;7.10;4.40;;;8.70;80.80;;;;;;5049297;28;20044;-60
2023/12/18 00:08:59;;;;;;;13.57;5.43;;;8.70;81.00;;;;;;5043840;28;20408;-60
2023/12/18 00:11:24;;;;;;;13.73;4.40;;;8.70;81.00;;;;;;5050728;28;20024;-59
2023/12/18 00:13:50;;;;;;;6.88;3.42;;;8.70;81.00;;;;;;5058100;28;20036;-60
2023/12/18 00:16:16;;;;;;;6.05;3.45;;;8.70;81.00;;;;;;5051883;28;20029;-60
2023/12/18 00:18:42;;;;;;;11.32;5.15;;;8.70;80.90;;;;;;5058544;28;20032;-59
2023/12/18 00:21:07;;;;;;;10.93;3.42;;;8.70;80.90;;;;;;5057938;28;20025;-60
2023/12/18 00:23:33;;;;;;;7.10;3.30;;;8.70;80.90;;;;;;5056528;28;20037;-60
2023/12/18 00:25:59;;;;;;;7.18;4.70;;;8.70;80.90;;;;;;5059319;28;20467;-59
2023/12/18 00:28:24;;;;;;;8.95;3.95;;;8.80;80.90;;;;;;5051926;28;20043;-60
2023/12/18 00:30:50;;;;;;;9.50;4.00;;;8.80;80.80;;;;;;5061746;28;20050;-60
2023/12/18 00:33:16;;;;;;;9.10;4.15;;;8.80;80.80;;;;;;5049016;28;20029;-60
2023/12/18 00:35:41;;;;;;;7.25;4.55;;;8.70;80.90;;;;;;5058285;28;20025;-59
2023/12/18 00:38:07;;;;;;;8.63;4.05;;;8.70;81.00;;;;;;5054668;28;20513;-67
2023/12/18 00:40:33;;;;;;;6.47;3.55;;;8.70;81.10;;;;;;5055155;28;20052;-67
2023/12/18 00:42:58;;;;;;;10.05;4.10;;;8.70;81.60;;;;;;5050418;28;20445;-67
2023/12/18 00:45:24;;;;;;;7.97;3.70;;;8.70;81.70;;;;;;5055676;28;20020;-67
2023/12/18 00:47:50;;;;;;;5.05;3.53;;;8.70;81.10;;;;;;5050133;28;20041;-60
2023/12/18 00:50:16;;;;;;;12.93;4.60;;;8.70;81.10;;;;;;5036002;28;20917;-60
2023/12/18 00:52:41;;;;;;;10.48;4.40;;;8.70;81.10;;;;;;5046662;28;20061;-60
2023/12/18 00:55:07;;;;;;;7.35;4.38;;;8.70;81.10;;;;;;5056674;28;20067;-58
2023/12/18 00:57:33;;;;;;;7.63;3.13;;;8.70;81.00;;;;;;5046879;28;20041;-65
2023/12/18 01:00:00;;;;;;;7.95;4.15;;;8.70;81.10;;;;;;5052766;28;20067;-65
2023/12/18 01:02:26;;;;;;;7.43;3.65;;;8.70;81.10;;;;;;5048978;28;20354;-65
2023/12/18 01:04:51;;;;;;;10.82;3.88;;;8.70;81.10;;;;;;5060396;28;20074;-67
2023/12/18 01:07:17;;;;;;;7.25;4.13;;;8.70;81.10;;;;;;5053550;28;20524;-67
2023/12/18 01:09:43;;;;;;;8.55;4.50;;;8.70;81.20;;;;;;5050638;28;20488;-67
2023/12/18 01:12:09;;;;;;;10.02;3.78;;;8.70;81.30;;;;;;5052933;28;20561;-67
2023/12/18 01:14:36;;;;;;;8.50;3.88;;;8.70;81.30;;;;;;5054692;28;20041;-67
2023/12/18 01:17:02;;;;;;;8.63;3.65;;;8.70;81.40;;;;;;5041284;28;20036;-65
2023/12/18 01:19:27;;;;;;;10.38;5.13;;;8.70;81.40;;;;;;5051792;28;20168;-67
2023/12/18 01:21:53;;;;;;;7.70;4.10;;;8.70;81.40;;;;;;5056007;28;20551;-65
2023/12/18 01:24:19;;;;;;;8.27;3.90;;;8.70;81.40;;;;;;5043055;28;20029;-65
2023/12/18 01:26:44;;;;;;;8.05;4.15;;;8.70;81.50;;;;;;5058184;28;20078;-66
2023/12/18 01:29:10;;;;;;;8.57;3.88;;;8.70;81.50;;;;;;5056891;28;20032;-66
2023/12/18 01:31:36;;;;;;;7.20;4.55;;;8.70;81.50;;;;;;5050455;28;20037;-66
2023/12/18 01:34:02;;;;;;;7.53;2.95;;;8.70;81.60;;;;;;5050762;28;20028;-58
2023/12/18 01:36:28;;;;;;;8.43;4.50;;;8.70;81.70;;;;;;5055433;28;20055;-66
2023/12/18 01:38:54;;;;;;;10.18;4.95;;;8.70;81.90;;;;;;5047219;28;20051;-66
2023/12/18 01:41:20;;;;;;;8.23;4.78;;;8.60;81.90;;;;;;5053507;28;20358;-66
2023/12/18 01:43:46;;;;;;;6.75;3.72;;;8.60;82.10;;;;;;5046404;28;20465;-58
2023/12/18 01:46:21;;;;;;;5.38;3.10;;;8.70;82.20;;;;;;5049095;28;20024;-66
2023/12/18 01:48:48;;;;;;;6.10;3.80;;;8.70;82.30;;;;;;5050946;28;20377;-66
2023/12/18 01:51:14;;;;;;;11.05;4.88;;;8.60;82.30;;;;;;5054546;28;20016;-66
2023/12/18 01:53:45;;;;;;;8.73;4.35;;;8.60;82.40;;;;;;5050236;28;20036;-58
2023/12/18 01:56:14;;;;;;;8.55;4.20;;;8.70;82.50;;;;;;5053658;28;20375;-58
2023/12/18 01:58:41;;;;;;;8.18;3.55;;;8.70;82.50;;;;;;5051551;28;20460;-66
2023/12/18 02:01:08;;;;;;;7.07;3.92;;;8.70;82.50;;;;;;5049069;28;20099;-66
2023/12/18 02:03:35;;;;;;;7.95;4.20;;;8.70;82.50;;;;;;5045654;28;20041;-66
2023/12/18 02:06:03;;;;;;;10.20;4.20;;;8.70;82.40;;;;;;5050441;28;20026;-66
2023/12/18 02:08:33;;;;;;;6.55;3.92;;;8.80;82.40;;;;;;5047307;28;20411;-58
2023/12/18 02:11:00;;;;;;;11.60;4.47;;;8.70;82.40;;;;;;5046157;28;20025;-58
2023/12/18 02:13:26;;;;;;;9.48;3.70;;;8.70;82.40;;;;;;5050382;28;20512;-58
2023/12/18 02:15:52;;;;;;;11.25;4.07;;;8.70;82.40;;;;;;5047374;28;20064;-57
2023/12/18 02:18:18;;;;;;;6.55;3.08;;;8.80;83.00;;;;;;5047875;28;20529;-67
2023/12/18 02:20:44;;;;;;;7.50;4.00;;;8.80;82.40;;;;;;5054815;28;20025;-67
2023/12/18 02:23:11;;;;;;;7.55;4.00;;;8.80;82.20;;;;;;5040625;28;20029;-67
2023/12/18 02:25:37;;;;;;;6.95;3.97;;;8.90;82.10;;;;;;5052206;28;20525;-67
2023/12/18 02:28:04;;;;;;;10.93;4.43;;;8.90;82.20;;;;;;5056576;28;20483;-58
2023/12/18 02:30:32;;;;;;;7.78;3.45;;;8.90;82.10;;;;;;5047220;28;20025;-58
2023/12/18 02:32:58;;;;;;;8.50;4.07;;;8.90;82.20;;;;;;5051554;28;20032;-58
2023/12/18 02:35:24;;;;;;;10.50;4.05;;;8.80;82.20;;;;;;5045512;28;20068;-57
2023/12/18 02:37:50;;;;;;;10.00;4.13;;;8.80;82.30;;;;;;5056907;28;20028;-60
2023/12/18 02:40:16;;;;;;;7.97;3.28;;;8.90;82.30;;;;;;5044333;28;20498;-60
2023/12/18 02:42:42;;;;;;;7.90;3.67;;;8.90;82.30;;;;;;5046232;28;20033;-60
2023/12/18 02:45:08;;;;;;;4.32;2.45;;;8.90;82.20;;;;;;5048403;28;20406;-60
2023/12/18 02:47:34;;;;;;;8.48;3.15;;;9.00;82.10;;;;;;5050805;28;20025;-60
2023/12/18 02:49:59;;;;;;;4.65;3.42;;;9.00;82.10;;;;;;5048707;28;20086;-60
2023/12/18 02:52:25;;;;;;;7.07;3.92;;;9.00;82.10;;;;;;5051778;28;20546;-60
2023/12/18 02:54:51;;;;;;;5.88;3.58;;;9.00;82.10;;;;;;5056971;28;20052;-60
2023/12/18 02:57:17;;;;;;;6.88;3.53;;;8.90;82.20;;;;;;5052097;28;20025;-60
2023/12/18 02:59:42;;;;;;;8.93;4.22;;;8.90;82.30;;;;;;5052625;28;20048;-60
2023/12/18 03:02:08;;;;;;;5.70;3.67;;;9.00;82.30;;;;;;5054539;28;20033;-60
2023/12/18 03:04:34;;;;;;;10.00;3.92;;;9.00;82.30;;;;;;5050967;28;20032;-60
2023/12/18 03:06:59;;;;;;;6.53;3.58;;;9.00;82.30;;;;;;5062108;28;20087;-60
2023/12/18 03:09:25;;;;;;;5.55;3.33;;;9.00;82.40;;;;;;5053394;28;20940;-60
2023/12/18 03:11:51;;;;;;;10.68;4.30;;;8.90;82.30;;;;;;5060767;28;20061;-60
2023/12/18 03:14:16;;;;;;;6.72;4.07;;;9.00;83.10;;;;;;5058023;28;20029;-67
2023/12/18 03:16:42;;;;;;;7.70;3.65;;;8.90;82.50;;;;;;5053717;28;20033;-65
2023/12/18 03:19:08;;;;;;;5.35;4.22;;;8.90;82.60;;;;;;5053162;28;20029;-65
2023/12/18 03:21:33;;;;;;;4.18;2.85;;;9.00;82.70;;;;;;5052220;28;20480;-67
2023/12/18 03:23:59;;;;;;;6.07;3.30;;;8.90;82.60;;;;;;5053918;28;20476;-67
2023/12/18 03:26:25;;;;;;;4.55;3.00;;;8.90;82.60;;;;;;5057357;28;20039;-67
2023/12/18 03:28:50;;;;;;;5.80;4.05;;;9.00;82.70;;;;;;5051657;28;20070;-67
2023/12/18 03:31:16;;;;;;;7.60;3.65;;;9.00;82.70;;;;;;5050258;28;20064;-65
2023/12/18 03:33:42;;;;;;;7.50;4.10;;;9.00;82.70;;;;;;5060362;28;20098;-67
2023/12/18 03:36:09;;;;;;;8.60;4.63;;;9.00;83.00;;;;;;5057570;28;20090;-67
2023/12/18 03:38:35;;;;;;;8.07;3.75;;;8.90;83.00;;;;;;5060077;28;20035;-67
2023/12/18 03:41:00;;;;;;;8.13;3.72;;;8.90;83.10;;;;;;5057362;28;20032;-67
2023/12/18 03:43:26;;;;;;;8.18;4.72;;;8.90;83.10;;;;;;5059357;28;20559;-60
2023/12/18 03:45:53;;;;;;;7.40;3.78;;;9.00;83.20;;;;;;5060989;28;20115;-60
2023/12/18 03:48:19;;;;;;;9.43;5.00;;;9.00;83.10;;;;;;5058830;28;20037;-67
2023/12/18 03:50:46;;;;;;;6.13;3.00;;;9.00;83.00;;;;;;5050255;28;20448;-67
2023/12/18 03:53:12;;;;;;;6.22;3.58;;;9.00;83.00;;;;;;5054377;28;20031;-67
2023/12/18 03:55:38;;;;;;;8.95;4.65;;;9.00;83.10;;;;;;5052091;28;20032;-67
2023/12/18 03:58:04;;;;;;;7.80;4.63;;;9.00;83.10;;;;;;5056412;28;20029;-67
2023/12/18 04:00:30;;;;;;;13.48;4.28;;;9.00;83.10;;;;;;5053894;28;20024;-68
2023/12/18 04:02:56;;;;;;;10.23;4.43;;;9.00;83.30;;;;;;5054327;28;20029;-67
2023/12/18 04:05:24;;;;;;;8.15;3.55;;;9.00;83.40;;;;;;5059055;28;20120;-67
2023/12/18 04:07:50;;;;;;;8.48;4.20;;;9.00;83.30;;;;;;5051126;28;20459;-60
2023/12/18 04:10:16;;;;;;;11.93;3.80;;;9.00;83.40;;;;;;5054523;28;20028;-65
2023/12/18 04:12:42;;;;;;;7.07;3.92;;;9.00;83.40;;;;;;5055228;28;20467;-67
2023/12/18 04:15:09;;;;;;;5.80;3.65;;;8.90;83.50;;;;;;5048084;28;20424;-58
2023/12/18 04:17:36;;;;;;;9.48;4.32;;;9.00;83.60;;;;;;5059354;28;20021;-57
2023/12/18 04:20:02;;;;;;;6.60;3.72;;;9.00;83.60;;;;;;5054462;28;20462;-58
2023/12/18 04:22:27;;;;;;;16.02;4.40;;;9.00;83.50;;;;;;5052295;28;20036;-66
2023/12/18 04:24:53;;;;;;;5.38;3.40;;;9.00;83.40;;;;;;5058048;28;20479;-66
2023/12/18 04:27:19;;;;;;;6.45;3.97;;;9.00;83.50;;;;;;5054229;28;20029;-66
2023/12/18 04:29:44;;;;;;;7.80;3.20;;;9.00;83.50;;;;;;5055350;28;20033;-66
2023/12/18 04:32:10;;;;;;;5.97;3.97;;;9.00;83.50;;;;;;5052595;28;20040;-66
2023/12/18 04:34:36;;;;;;;6.38;4.18;;;9.10;83.50;;;;;;5055954;28;20033;-66
2023/12/18 04:37:01;;;;;;;8.15;4.72;;;9.00;83.40;;;;;;5045985;28;20026;-66
2023/12/18 04:39:27;;;;;;;6.47;3.70;;;9.00;83.70;;;;;;5047451;28;20028;-66
2023/12/18 04:41:53;;;;;;;6.82;3.47;;;9.00;83.80;;;;;;5050253;28;20396;-66
2023/12/18 04:44:18;;;;;;;7.45;4.65;;;9.00;83.80;;;;;;5039167;28;20025;-66
2023/12/18 04:46:44;;;;;;;6.55;4.35;;;9.00;83.80;;;;;;5045937;28;20107;-66
2023/12/18 04:49:10;;;;;;;9.93;4.53;;;9.00;84.00;;;;;;5055477;28;20024;-66
2023/12/18 04:51:36;;;;;;;5.07;3.47;;;9.00;84.10;;;;;;5027563;28;20079;-66
2023/12/18 04:54:01;;;;;;;7.32;4.20;;;9.00;84.10;;;;;;5048119;28;20091;-59
2023/12/18 04:56:27;;;;;;;5.18;3.08;;;9.00;84.00;;;;;;5043199;28;20037;-58
2023/12/18 04:58:53;;;;;;;6.35;3.80;;;9.10;83.90;;;;;;5056092;28;20024;-58
2023/12/18 05:01:19;;;;;;;6.55;4.43;;;9.00;83.90;;;;;;5034472;28;20040;-58
2023/12/18 05:03:45;;;;;;;8.60;4.10;;;9.00;84.00;;;;;;5057647;28;20032;-58
2023/12/18 05:06:21;;;;;;;8.48;4.95;;;9.00;84.10;;;;;;5050091;28;20021;-58
2023/12/18 05:08:50;;;;;;;10.23;4.90;;;9.00;84.30;;;;;;5051836;28;20223;-58
2023/12/18 05:11:17;;;;;;;8.30;3.88;;;8.90;84.30;;;;;;5051696;28;20047;-58
2023/12/18 05:13:44;;;;;;;10.48;5.55;;;8.90;84.40;;;;;;5049008;28;20501;-58
2023/12/18 05:16:09;;;;;;;8.05;4.25;;;8.90;84.40;;;;;;5046967;28;20033;-58
2023/12/18 05:18:35;;;;;;;5.78;4.07;;;8.90;84.40;;;;;;5051070;28;20551;-66
2023/12/18 05:21:02;;;;;;;14.10;4.22;;;9.00;84.50;;;;;;5054539;28;20035;-66
2023/12/18 05:23:28;;;;;;;9.90;4.07;;;9.00;84.40;;;;;;5056184;28;20095;-66
2023/12/18 05:25:54;;;;;;;12.38;4.00;;;9.00;84.40;;;;;;5050786;28;20021;-59
2023/12/18 05:28:19;;;;;;;6.93;4.05;;;9.00;84.50;;;;;;5050842;28;20140;-58
2023/12/18 05:30:45;;;;;;;14.55;4.40;;;9.00;84.40;;;;;;5048402;28;20045;-58
2023/12/18 05:33:11;;;;;;;6.85;3.83;;;9.00;84.40;;;;;;5051972;28;20063;-58
2023/12/18 05:35:37;;;;;;;7.63;4.30;;;9.00;84.40;;;;;;5053201;28;20071;-58
2023/12/18 05:38:03;;;;;;;10.05;4.28;;;9.00;84.40;;;;;;5057992;28;20068;-66
2023/12/18 05:40:28;;;;;;;7.40;4.35;;;9.00;84.40;;;;;;5045026;28;20099;-65
2023/12/18 05:42:54;;;;;;;11.25;5.00;;;9.10;84.40;;;;;;5049417;28;20059;-66
2023/12/18 05:45:20;;;;;;;15.60;4.60;;;9.10;84.40;;;;;;5039378;28;20119;-66
2023/12/18 05:47:46;;;;;;;9.75;4.68;;;9.00;84.40;;;;;;5041299;28;20128;-66
2023/12/18 05:50:12;;;;;;;10.30;4.55;;;9.00;84.50;;;;;;5060565;28;20077;-66
2023/12/18 05:52:38;;;;;;;11.80;3.78;;;9.00;84.40;;;;;;5044468;28;20044;-58
2023/12/18 05:55:04;;;;;;;9.55;4.63;;;9.00;84.40;;;;;;5052601;28;20388;-65
2023/12/18 05:57:30;;;;;;;10.68;5.25;;;9.00;84.40;;;;;;5054047;28;20088;-66
2023/12/18 05:59:56;;;;;;;9.30;4.65;;;9.00;84.40;;;;;;5048244;28;20060;-58
2023/12/18 06:02:22;;;;;;;6.40;4.45;;;9.00;85.10;;;;;;5051186;28;20093;-58
2023/12/18 06:04:48;;;;;;;8.38;5.15;;;8.90;84.60;;;;;;5048594;28;20182;-58
2023/12/18 06:07:14;;;;;;;9.25;4.47;;;8.90;84.70;;;;;;5029328;28;20072;-58
2023/12/18 06:09:40;;;;;;;7.82;4.30;;;8.90;84.70;;;;;;5034225;28;20060;-65
2023/12/18 06:12:06;;;;;;;7.13;4.25;;;9.00;84.80;;;;;;5045820;28;20045;-65
2023/12/18 06:14:32;;;;;;;20.13;4.85;;;9.00;84.80;;;;;;5054896;28;20033;-66
2023/12/18 06:16:57;;;;;;;7.53;3.75;;;9.00;84.60;;;;;;5044107;28;20083;-58
2023/12/18 06:19:23;;;;;;;8.18;4.40;;;9.00;84.50;;;;;;5053634;28;20112;-58
2023/12/18 06:21:49;;;;;;;9.50;4.38;;;9.10;84.60;;;;;;5048288;28;20426;-58
2023/12/18 06:24:14;;;;;;;9.80;5.22;;;9.10;84.50;;;;;;5054115;28;20029;-66
2023/12/18 06:26:40;;;;;;;7.30;4.25;;;9.00;84.50;;;;;;5057061;28;20063;-66
2023/12/18 06:29:05;;;;;;;9.85;5.47;;;9.00;84.60;;;;;;5055970;28;20033;-66
2023/12/18 06:31:33;;;;;;;9.32;4.18;;;9.00;84.60;;;;;;5062403;28;20122;-58
2023/12/18 06:33:59;;;;;;;11.48;5.10;;;9.00;84.70;;;;;;5062158;28;20050;-60
2023/12/18 06:36:24;;;;;;;14.02;5.18;;;9.00;84.70;;;;;;5054309;28;20060;-68
2023/12/18 06:38:50;;;;;;;8.05;4.78;;;9.00;84.70;;;;;;5050725;28;20044;-66
2023/12/18 06:41:15;;;;;;;10.38;5.45;;;9.00;84.70;;;;;;5050205;28;20020;-66
2023/12/18 06:43:41;;;;;;;8.82;4.88;;;9.00;84.70;;;;;;5054869;28;20052;-66
2023/12/18 06:46:07;;;;;;;10.10;4.55;;;9.00;84.80;;;;;;5055543;28;20032;-66
2023/12/18 06:48:33;;;;;;;11.20;6.22;;;9.00;84.70;;;;;;5052969;28;20472;-58
2023/12/18 06:50:58;;;;;;;6.97;5.22;;;9.00;84.70;;;;;;5060281;28;20132;-58
2023/12/18 06:53:25;;;;;;;11.32;5.72;;;9.00;84.80;;;;;;5053277;28;20036;-66
2023/12/18 06:55:50;;;;;;;8.48;4.68;;;9.00;84.80;;;;;;5056229;28;20032;-58
2023/12/18 06:58:16;;;;;;;12.40;5.93;;;9.00;84.80;;;;;;5052543;28;20029;-59
2023/12/18 07:00:43;;;;;;;10.10;4.95;;;9.00;84.70;;;;;;5053694;28;20025;-59
2023/12/18 07:03:09;;;;;;;11.45;5.45;;;9.00;84.80;;;;;;5052026;28;20037;-66
2023/12/18 07:05:34;;;;;;;6.93;4.65;;;9.00;84.80;;;;;;5065009;28;20025;-66
2023/12/18 07:08:00;;;;;;;10.00;5.03;;;9.00;84.90;;;;;;5054875;28;20041;-66
2023/12/18 07:10:26;;;;;;;11.57;5.03;;;9.00;85.00;;;;;;5058933;28;20415;-66
2023/12/18 07:12:52;;;;;;;11.48;5.57;;;9.00;84.90;;;;;;5050397;28;20320;-66
2023/12/18 07:15:18;;;;;;;10.60;5.65;;;9.00;84.90;;;;;;5060190;28;20119;-66
2023/12/18 07:17:43;;;;;;;11.07;5.95;;;9.00;84.90;;;;;;5038361;28;20143;-58
2023/12/18 07:20:11;;;;;;;10.73;5.28;;;9.00;85.00;;;;;;5054725;28;20037;-58
2023/12/18 07:22:39;;;;;;;10.55;6.47;;;9.00;85.20;;;;;;5058352;28;20119;-59
2023/12/18 07:25:05;;;;;;;7.97;4.10;;;9.00;85.20;;;;;;5050508;28;20056;-59
2023/12/18 07:27:30;;;;;;;5.93;4.60;;;9.00;85.20;;;;;;5060078;28;20060;-58
2023/12/18 07:29:56;;;;;;;11.70;5.70;;;9.00;85.10;;;;;;5041816;28;20029;-58
2023/12/18 07:32:22;;;;;;;11.48;5.30;;;9.10;85.10;;;;;;5049148;28;20040;-59
2023/12/18 07:34:47;;;;;;;9.80;6.45;;;9.10;85.20;;;;;;5057828;28;20025;-59
2023/12/18 07:37:13;;;;;;;9.30;4.30;;;9.00;85.30;;;;;;5057180;28;20024;-58
2023/12/18 07:39:39;;;;;;;12.68;5.18;;;9.00;85.40;;;;;;5053781;28;20029;-59
2023/12/18 07:42:05;;;;;;;8.20;4.80;;;9.10;85.40;;;;;;5059599;28;20108;-66
2023/12/18 07:44:30;;;;;;;11.55;5.97;;;9.10;85.20;;;;;;5050368;28;20033;-66
2023/12/18 07:46:56;;;;;;;9.23;4.68;;;9.10;85.20;;;;;;5053968;28;20135;-66
2023/12/18 07:49:22;;;;;;;8.00;4.50;;;9.10;85.20;;;;;;5052564;28;20440;-66
2023/12/18 07:51:48;;;;;;;11.25;5.05;;;9.10;85.20;;;;;;5056631;28;20511;-59
2023/12/18 07:54:15;;;;;;;14.20;5.88;;;9.10;85.20;;;;;;5055282;28;20029;-58
2023/12/18 07:56:40;;;;;;;10.27;5.38;;;9.20;85.20;;;;;;5056026;28;20035;-58
2023/12/18 07:59:07;;;;;;;18.63;4.70;;;9.20;85.10;;;;;;5056780;28;20033;-59
2023/12/18 08:01:34;;;;;;;7.55;4.57;;;9.20;85.00;;;;;;5055563;28;20040;-58
2023/12/18 08:04:00;;;;;;;11.80;6.22;;;9.20;85.00;;;;;;5047343;28;20033;-58
2023/12/18 08:06:25;;;;;;;10.38;5.75;;;9.20;85.00;;;;;;5049077;28;20034;-59
2023/12/18 08:08:51;;;;;;;13.18;5.07;;;9.20;85.20;;;;;;5058101;28;20479;-58
2023/12/18 08:11:17;;;;;;;13.98;6.13;;;9.20;85.30;;;;;;5055047;28;20039;-58
2023/12/18 08:13:43;;;;;;;10.25;4.68;;;9.20;85.30;;;;;;5055445;28;20854;-58
2023/12/18 08:16:10;;;;;;;9.13;4.78;;;9.20;85.30;;;;;;5051288;28;20098;-66
2023/12/18 08:18:36;;;;;;;13.10;5.63;;;9.20;85.30;;;;;;5053750;28;20419;-66
2023/12/18 08:21:03;;;;;;;12.23;6.95;;;9.20;85.30;;;;;;5047709;28;20025;-66
2023/12/18 08:23:28;;;;;;;12.82;5.40;;;9.20;85.30;;;;;;5052276;28;20059;-66
2023/12/18 08:25:54;;;;;;;9.80;5.18;;;9.20;85.20;;;;;;5054164;28;20060;-58
2023/12/18 08:28:20;;;;;;;14.93;5.45;;;9.20;85.20;;;;;;5055837;28;20361;-58
2023/12/18 08:30:45;;;;;;;12.30;5.53;;;9.30;85.20;;;;;;5057314;28;20041;-59
2023/12/18 08:33:12;;;;;;;8.32;5.18;;;9.30;85.10;;;;;;5059062;28;20067;-58
2023/12/18 08:35:37;;;;;;;8.27;4.90;;;9.30;85.10;;;;;;5052337;28;20061;-58
2023/12/18 08:38:03;;;;;;;7.88;4.20;;;9.30;85.10;;;;;;5028289;28;20456;-58
2023/12/18 08:40:29;;;;;;;14.57;5.80;;;9.30;85.00;;;;;;5044065;28;20029;-66
2023/12/18 08:42:55;;;;;;;8.52;5.60;;;9.30;85.00;;;;;;5051574;28;20040;-59
2023/12/18 08:45:20;;;;;;;10.57;4.80;;;9.30;85.00;;;;;;5046741;28;20040;-59
2023/12/18 08:47:46;;;;;;;9.40;4.80;;;9.30;85.00;;;;;;5060205;28;20044;-59
2023/12/18 08:50:12;;;;;;;8.50;4.80;;;9.30;85.10;;;;;;5045715;28;20496;-59
2023/12/18 08:52:37;;;;;;;9.98;5.30;;;9.30;85.00;;;;;;5043651;28;20033;-59
2023/12/18 08:55:04;;;;;;;11.57;5.85;;;9.40;85.00;;;;;;5045738;28;20319;-59
2023/12/18 08:57:29;;;;;;;9.93;5.47;;;9.30;84.90;;;;;;5051060;28;20021;-66
2023/12/18 08:59:55;;;;;;;10.70;5.32;;;9.30;84.90;;;;;;5049953;28;20048;-70
2023/12/18 09:02:21;;;;;;;10.57;4.85;;;9.30;84.90;;;;;;5048514;28;20398;-71
2023/12/18 09:04:47;;;;;;;7.68;4.82;;;9.30;84.90;;;;;;5033468;28;20201;-71
2023/12/18 09:07:13;;;;;;;12.07;4.95;;;9.30;85.00;;;;;;5041841;28;20507;-70
2023/12/18 09:09:39;;;;;;;12.38;5.38;;;9.30;85.00;;;;;;5047149;28;20024;-70
2023/12/18 09:12:08;;;;;;;12.18;5.88;;;9.40;85.10;;;;;;5042006;28;20424;-72
2023/12/18 09:14:36;;;;;;;12.77;6.47;;;9.40;85.00;;;;;;5051272;28;20025;-72
2023/12/18 09:17:01;;;;;;;11.05;5.30;;;9.40;84.90;;;;;;5054043;28;20070;-72
2023/12/18 09:19:29;;;;;;;11.18;5.47;;;9.40;85.00;;;;;;5049342;28;20025;-61
2023/12/18 09:21:55;;;;;;;11.20;4.55;;;9.40;85.00;;;;;;5051128;28;20433;-73
2023/12/18 09:24:20;;;;;;;11.82;6.32;;;9.40;85.00;;;;;;5046532;28;20116;-70
2023/12/18 09:26:46;;;;;;;8.95;5.07;;;9.40;85.00;;;;;;5032154;28;20029;-68
2023/12/18 09:29:12;;;;;;;10.18;4.68;;;9.50;85.00;;;;;;5034546;28;20037;-71
2023/12/18 09:31:37;;;;;;;9.52;5.63;;;9.50;84.90;;;;;;5038150;28;20028;-60
2023/12/18 09:34:03;;;;;;;7.63;3.97;;;9.50;84.90;;;;;;5034246;28;20021;-61
2023/12/18 09:36:29;;;;;;;9.43;5.00;;;9.50;84.90;;;;;;5044993;28;20037;-72
2023/12/18 09:38:54;;;;;;;15.52;5.07;;;9.50;84.90;;;;;;5046068;28;20032;-70
2023/12/18 09:41:24;;;;;;;13.63;5.10;;;9.50;84.80;;;;;;5035242;28;20487;-69
2023/12/18 09:43:54;;;;;;;10.55;5.57;;;9.50;84.80;;;;;;5033530;28;20030;-69
2023/12/18 09:46:24;;;;;;;10.05;5.32;;;9.60;84.80;;;;;;5046576;28;20040;-72
2023/12/18 09:48:51;;;;;;;12.98;5.85;;;9.60;84.70;;;;;;5030741;28;20103;-71
2023/12/18 09:51:19;;;;;;;11.07;3.80;;;9.70;84.70;;;;;;5040374;28;20483;-71
2023/12/18 09:53:46;;;;;;;8.13;4.38;;;9.70;84.60;;;;;;5058851;28;20036;-71
2023/12/18 09:56:12;;;;;;;10.60;6.70;;;9.80;84.40;;;;;;5033238;28;20041;-71
2023/12/18 09:58:40;;;;;;;14.18;4.93;;;9.70;84.30;;;;;;5037615;28;20040;-71
2023/12/18 10:01:07;;;;;;;10.13;5.72;;;9.80;84.40;;;;;;5036791;28;20511;-71
2023/12/18 10:03:33;;;;;;;10.52;5.72;;;9.70;84.20;;;;;;5043084;28;20318;-71
2023/12/18 10:05:59;;;;;;;10.57;5.05;;;9.80;84.40;;;;;;5053142;28;20043;-60
2023/12/18 10:08:24;;;;;;;9.95;5.28;;;9.70;84.20;;;;;;5044979;28;20380;-71
2023/12/18 10:10:50;;;;;;;10.75;5.68;;;9.80;84.30;;;;;;5045004;28;20072;-71
2023/12/18 10:13:16;;;;;;;13.52;5.95;;;9.80;84.30;;;;;;5044087;28;20037;-71
2023/12/18 10:15:42;;;;;;;10.80;5.32;;;9.80;84.30;;;;;;5047641;28;20800;-59
2023/12/18 10:18:09;;;;;;;13.65;5.38;;;9.80;84.10;;;;;;5049915;28;20384;-59
2023/12/18 10:20:36;;;;;;;7.72;5.20;;;9.70;84.20;;;;;;5046560;28;20043;-60
2023/12/18 10:23:05;;;;;;;12.98;5.07;;;9.70;84.30;;;;;;5045028;28;20108;-60
2023/12/18 10:25:33;;;;;;;9.48;6.00;;;9.80;84.30;;;;;;5045118;28;20032;-60
2023/12/18 10:27:59;;;;;;;11.55;4.30;;;9.80;84.20;;;;;;5050418;28;20081;-60
2023/12/18 10:30:27;;;;;;;8.55;5.35;;;9.90;84.20;;;;;;5046118;28;20040;-60
2023/12/18 10:32:53;;;;;;;12.43;5.60;;;9.90;83.90;;;;;;5043371;28;20508;-60
2023/12/18 10:35:19;;;;;;;12.27;5.88;;;9.90;83.90;;;;;;5050213;28;20056;-60
2023/12/18 10:37:56;;;;;;;8.30;4.05;;;9.90;83.90;;;;;;5044181;28;20018;-71
2023/12/18 10:40:25;;;;;;;9.57;5.43;;;10.00;83.80;;;;;;5045602;28;20017;-71
2023/12/18 10:43:18;;;;;;;12.00;6.00;;;10.00;83.80;;;;;;5043880;28;20373;-71
2023/12/18 10:45:46;;;;;;;11.10;5.93;;;10.00;83.70;;;;;;5047913;28;20025;-71
2023/12/18 10:48:12;;;;;;;7.30;4.70;;;9.90;83.60;;;;;;5057664;28;20052;-71
2023/12/18 10:50:38;;;;;;;10.60;7.00;;;9.90;83.60;;;;;;5050900;28;20420;-71
2023/12/18 10:53:05;;;;;;;12.00;4.40;;;10.00;83.70;;;;;;5043546;28;20026;-71
2023/12/18 10:55:33;;;;;;;11.07;5.57;;;9.90;83.60;;;;;;5049679;28;20032;-60
2023/12/18 10:58:00;;;;;;;9.50;5.03;;;9.90;83.70;;;;;;5047027;28;20036;-60
2023/12/18 11:00:27;;;;;;;29.58;5.75;;;9.90;83.80;;;;;;5034380;28;20032;-60
2023/12/18 11:02:55;;;;;;;14.35;5.85;;;9.90;83.80;;;;;;5044102;28;20033;-60
2023/12/18 11:05:21;;;;;;;9.82;5.10;;;10.00;83.70;;;;;;5054039;28;20033;-60
2023/12/18 11:07:47;;;;;;;10.10;5.40;;;10.00;83.60;;;;;;5036040;28;20116;-60
2023/12/18 11:10:13;;;;;;;9.45;5.45;;;10.10;83.60;;;;;;5043180;28;20160;-60
2023/12/18 11:12:40;;;;;;;8.43;4.20;;;10.10;83.30;;;;;;5048782;28;20119;-60
2023/12/18 11:15:20;;;;;;;14.30;5.35;;;10.20;83.40;;;;;;5054574;28;20049;-61
2023/12/18 11:18:01;;;;;;;12.65;5.72;;;10.10;83.30;;;;;;5055020;28;20031;-60
2023/12/18 11:20:33;;;;;;;9.90;5.20;;;10.20;83.30;;;;;;5055755;28;20044;-60
2023/12/18 11:23:00;;;;;;;11.57;5.45;;;10.20;83.20;;;;;;5039069;28;20021;-60
2023/12/18 11:25:36;;;;;;;9.30;5.22;;;10.20;83.20;;;;;;5044046;28;20060;-60
2023/12/18 11:28:04;;;;;;;12.02;6.22;;;10.20;83.10;;;;;;5050283;28;20111;-60
2023/12/18 11:30:31;;;;;;;11.63;6.40;;;10.10;83.00;;;;;;5045922;28;20701;-60
2023/12/18 11:33:05;;;;;;;9.07;5.30;;;10.10;83.10;;;;;;5057666;28;20036;-60
2023/12/18 11:35:33;;;;;;;15.38;5.57;;;10.10;83.20;;;;;;5041772;28;20408;-60
2023/12/18 11:38:12;;;;;;;12.05;5.97;;;10.10;83.20;;;;;;5046901;28;20056;-60
2023/12/18 11:40:42;;;;;;;13.25;5.13;;;10.10;83.30;;;;;;5047484;28;20083;-60
2023/12/18 11:43:09;;;;;;;15.93;5.03;;;10.20;83.40;;;;;;5050321;28;20040;-71
2023/12/18 11:45:45;;;;;;;7.32;4.20;;;10.10;83.30;;;;;;5043036;28;20462;-71
2023/12/18 11:48:16;;;;;;;9.57;4.25;;;10.20;83.20;;;;;;5041300;28;20555;-71
2023/12/18 11:50:42;;;;;;;10.43;5.82;;;10.20;83.20;;;;;;5044271;28;20038;-71
2023/12/18 11:53:38;;;;;;;10.07;5.57;;;10.30;83.30;;;;;;5045954;28;20082;-71
2023/12/18 11:56:08;;;;;;;13.30;6.03;;;10.30;83.10;;;;;;5052167;28;20041;-71
2023/12/18 11:58:38;;;;;;;7.72;4.80;;;10.30;83.10;;;;;;5045371;28;20025;-71
2023/12/18 12:01:04;;;;;;;12.13;5.78;;;10.20;83.60;;;;;;5049599;28;20031;-70
2023/12/18 12:03:32;;;;;;;15.40;6.07;;;10.30;83.00;;;;;;5042605;28;20029;-70
2023/12/18 12:05:58;;;;;;;10.10;5.05;;;10.20;83.00;;;;;;5045291;28;20491;-71
2023/12/18 12:08:24;;;;;;;7.50;4.60;;;10.20;83.10;;;;;;5045016;28;20032;-71
2023/12/18 12:10:50;;;;;;;9.65;5.72;;;10.20;83.20;;;;;;5036116;28;20438;-70
2023/12/18 12:13:18;;;;;;;10.77;6.10;;;10.20;83.10;;;;;;5035593;28;20104;-71
2023/12/18 12:15:57;;;;;;;13.38;5.45;;;10.20;83.20;;;;;;5038447;28;20025;-71
2023/12/18 12:18:28;;;;;;;8.48;5.60;;;10.30;83.10;;;;;;5048107;28;20472;-71
2023/12/18 12:20:54;;;;;;;9.68;5.00;;;10.30;83.20;;;;;;5049104;28;20027;-71
2023/12/18 12:23:21;;;;;;;13.45;6.47;;;10.30;83.10;;;;;;5048210;28;20028;-71
2023/12/18 12:25:48;;;;;;;10.55;5.25;;;10.30;82.80;;;;;;5040672;28;20087;-70
2023/12/18 12:28:15;;;;;;;12.40;5.30;;;10.30;82.90;;;;;;5043240;28;20116;-71
2023/12/18 12:30:42;;;;;;;10.40;5.53;;;10.30;82.90;;;;;;5051491;28;20033;-71
2023/12/18 12:33:08;;;;;;;9.02;5.68;;;10.40;82.90;;;;;;5049263;28;20504;-71
2023/12/18 12:35:34;;;;;;;10.98;5.13;;;10.40;82.90;;;;;;5052122;28;20060;-71
2023/12/18 12:38:03;;;;;;;10.95;5.63;;;10.40;82.90;;;;;;5045244;28;20078;-70
2023/12/18 12:40:37;;;;;;;9.90;5.40;;;10.40;82.80;;;;;;5051159;28;20069;-71
2023/12/18 12:43:04;;;;;;;10.82;5.53;;;10.40;82.80;;;;;;5047366;28;20059;-71
2023/12/18 12:45:29;;;;;;;19.35;6.97;;;10.40;82.90;;;;;;5043473;28;20448;-70
2023/12/18 12:47:59;;;;;;;8.00;5.32;;;10.40;82.60;;;;;;5045474;28;20037;-71